createdAt,value
2022-10-09T00:01:32.074Z,90.20
2022-10-09T00:04:00.634Z,90.70
2022-10-09T00:06:33.047Z,93.10
2022-10-09T00:09:02.623Z,94.40
2022-10-09T00:11:33.119Z,95.50
2022-10-09T00:14:01.463Z,95.70
2022-10-09T00:16:30.422Z,95.50
2022-10-09T00:18:58.800Z,95.70
2022-10-09T00:21:33.275Z,95.20
2022-10-09T00:24:04.010Z,94.70
2022-10-09T00:26:32.771Z,94.60
2022-10-09T00:29:00.727Z,94.10
2022-10-09T00:31:29.250Z,93.80
2022-10-09T00:33:57.164Z,93.20
2022-10-09T00:36:27.175Z,93.10
2022-10-09T00:38:55.882Z,93.30
2022-10-09T00:41:31.416Z,93.20
2022-10-09T00:44:24.485Z,93.40
2022-10-09T00:46:52.884Z,93.30
2022-10-09T00:49:32.199Z,93.60
2022-10-09T00:52:04.582Z,94.10
2022-10-09T00:54:37.225Z,95.00
2022-10-09T00:57:05.337Z,95.50
2022-10-09T00:59:33.328Z,95.60
2022-10-09T01:02:01.206Z,95.30
2022-10-09T01:04:29.135Z,95.10
2022-10-09T01:07:40.599Z,94.50
2022-10-09T01:10:33.017Z,95.60
2022-10-09T01:14:00.565Z,97.40
2022-10-09T01:17:04.526Z,99.90
2022-10-09T01:20:06.258Z,99.90
2022-10-09T01:23:01.994Z,99.90
2022-10-09T01:25:43.840Z,99.90
2022-10-09T01:28:13.443Z,99.90
2022-10-09T01:30:42.660Z,99.90
2022-10-09T01:33:11.316Z,99.90
2022-10-09T01:35:40.622Z,99.90
2022-10-09T01:38:08.748Z,99.60
2022-10-09T01:40:37.109Z,99.30
2022-10-09T01:43:05.738Z,98.60
2022-10-09T01:45:44.096Z,98.00
2022-10-09T01:48:41.947Z,96.90
2022-10-09T01:51:09.940Z,97.00
2022-10-09T01:53:39.341Z,96.30
2022-10-09T01:56:19.272Z,96.30
2022-10-09T01:59:01.126Z,97.20
2022-10-09T02:01:36.685Z,98.20
2022-10-09T02:04:12.405Z,99.20
2022-10-09T02:06:41.993Z,99.90
2022-10-09T02:09:15.526Z,99.90
2022-10-09T02:11:51.114Z,99.90
2022-10-09T02:14:19.059Z,99.90
2022-10-09T02:16:51.117Z,99.30
2022-10-09T02:19:44.568Z,99.70
2022-10-09T02:22:28.550Z,99.70
2022-10-09T02:24:59.515Z,99.30
2022-10-09T02:27:28.352Z,99.90
2022-10-09T02:29:57.872Z,99.90
2022-10-09T02:32:25.765Z,99.90
2022-10-09T02:34:53.586Z,99.90
2022-10-09T02:37:21.331Z,99.90
2022-10-09T02:39:49.517Z,99.90
2022-10-09T02:42:17.302Z,99.90
2022-10-09T02:44:45.077Z,99.90
2022-10-09T02:47:12.798Z,99.90
2022-10-09T02:49:40.616Z,99.90
2022-10-09T02:52:08.380Z,99.90
2022-10-09T02:54:36.161Z,99.90
2022-10-09T02:57:03.996Z,99.90
2022-10-09T02:59:32.244Z,99.90
2022-10-09T03:02:00.088Z,99.90
2022-10-09T03:04:27.974Z,99.90
2022-10-09T03:06:55.750Z,99.90
2022-10-09T03:09:23.717Z,99.90
2022-10-09T03:11:51.449Z,99.90
2022-10-09T03:14:19.212Z,99.60
2022-10-09T03:16:47.012Z,99.60
2022-10-09T03:19:14.760Z,99.90
2022-10-09T03:21:42.507Z,99.90
2022-10-09T03:24:10.435Z,99.90
2022-10-09T03:26:38.213Z,99.90
2022-10-09T03:29:05.972Z,99.90
2022-10-09T03:31:51.174Z,99.90
2022-10-09T03:34:19.406Z,99.90
2022-10-09T03:36:47.185Z,99.90
2022-10-09T03:39:14.953Z,99.90
2022-10-09T03:41:42.791Z,99.90
2022-10-09T03:44:10.518Z,99.90
2022-10-09T03:46:38.378Z,99.90
2022-10-09T03:49:06.153Z,99.90
2022-10-09T03:51:33.975Z,99.90
2022-10-09T03:54:01.732Z,99.90
2022-10-09T03:56:29.613Z,99.90
2022-10-09T03:58:57.398Z,99.90
2022-10-09T04:01:25.230Z,99.90
2022-10-09T04:03:52.969Z,99.90
2022-10-09T04:06:20.851Z,99.90
2022-10-09T04:08:48.572Z,99.90
2022-10-09T04:11:17.056Z,99.90
2022-10-09T04:13:44.777Z,99.90
2022-10-09T04:16:13.001Z,99.90
2022-10-09T04:18:43.722Z,99.90
2022-10-09T04:21:13.107Z,99.90
2022-10-09T04:23:40.958Z,99.90
2022-10-09T04:26:11.497Z,99.90
2022-10-09T04:28:39.685Z,99.90
2022-10-09T04:31:07.548Z,99.90
2022-10-09T04:33:35.453Z,99.90
2022-10-09T04:36:03.468Z,99.90
2022-10-09T04:38:32.119Z,99.90
2022-10-09T04:41:05.732Z,99.90
2022-10-09T04:43:34.782Z,99.90
2022-10-09T04:46:13.304Z,99.90
2022-10-09T04:48:43.641Z,99.90
2022-10-09T04:51:12.173Z,99.90
2022-10-09T04:53:40.417Z,99.90
2022-10-09T04:56:18.944Z,99.90
2022-10-09T04:58:47.686Z,99.90
2022-10-09T05:01:21.097Z,99.90
2022-10-09T05:03:49.384Z,99.90
2022-10-09T05:06:19.126Z,99.90
2022-10-09T05:08:47.543Z,99.90
2022-10-09T05:11:23.200Z,99.90
2022-10-09T05:13:55.418Z,99.90
2022-10-09T05:16:28.160Z,99.90
2022-10-09T05:18:59.169Z,99.90
2022-10-09T05:21:28.537Z,99.90
2022-10-09T05:23:57.117Z,99.90
2022-10-09T05:26:26.561Z,99.90
2022-10-09T05:28:55.026Z,99.90
2022-10-09T05:31:26.756Z,99.90
2022-10-09T05:33:58.232Z,99.90
2022-10-09T05:36:26.013Z,99.90
2022-10-09T05:38:53.739Z,99.90
2022-10-09T05:41:21.576Z,99.90
2022-10-09T05:43:50.378Z,99.90
2022-10-09T05:46:20.541Z,99.90
2022-10-09T05:48:55.003Z,99.90
2022-10-09T05:51:25.637Z,99.90
2022-10-09T05:53:54.027Z,99.90
2022-10-09T05:56:34.378Z,99.90
2022-10-09T05:59:06.225Z,99.90
2022-10-09T06:01:41.032Z,99.90
2022-10-09T06:04:17.737Z,99.90
2022-10-09T06:06:48.450Z,99.90
2022-10-09T06:09:19.764Z,99.90
2022-10-09T06:11:47.535Z,99.90
2022-10-09T06:14:15.847Z,99.90
2022-10-09T06:16:46.252Z,99.90
2022-10-09T06:19:17.513Z,99.90
2022-10-09T06:21:45.889Z,99.90
2022-10-09T06:24:29.423Z,99.90
2022-10-09T06:26:58.493Z,99.90
2022-10-09T06:29:27.094Z,99.90
2022-10-09T06:31:54.916Z,99.90
2022-10-09T06:34:23.127Z,99.90
2022-10-09T06:36:50.909Z,99.90
2022-10-09T06:39:18.764Z,99.90
2022-10-09T06:41:46.532Z,99.90
2022-10-09T06:44:32.995Z,99.90
2022-10-09T06:47:00.724Z,99.90
2022-10-09T06:49:28.531Z,99.90
2022-10-09T06:51:56.380Z,99.90
2022-10-09T06:54:24.185Z,99.90
2022-10-09T06:56:55.061Z,99.90
2022-10-09T06:59:22.847Z,99.90
2022-10-09T07:01:50.623Z,99.90
2022-10-09T07:04:18.771Z,99.90
2022-10-09T07:06:47.913Z,99.90
2022-10-09T07:09:16.551Z,99.90
2022-10-09T07:11:49.440Z,99.90
2022-10-09T07:14:17.962Z,99.90
2022-10-09T07:16:48.427Z,99.90
2022-10-09T07:19:18.547Z,99.90
2022-10-09T07:21:49.518Z,99.90
2022-10-09T07:24:20.394Z,99.90
2022-10-09T07:26:49.201Z,99.90
2022-10-09T07:29:19.075Z,99.90
2022-10-09T07:31:47.403Z,99.90
2022-10-09T07:34:15.641Z,99.90
2022-10-09T07:36:43.581Z,99.90
2022-10-09T07:39:11.449Z,99.90
2022-10-09T07:41:39.221Z,99.90
2022-10-09T07:44:06.982Z,99.90
2022-10-09T07:46:34.867Z,99.90
2022-10-09T07:49:03.323Z,99.90
2022-10-09T07:51:32.223Z,99.90
2022-10-09T07:54:02.073Z,99.90
2022-10-09T07:56:33.407Z,99.90
2022-10-09T07:59:13.351Z,99.90
2022-10-09T08:01:41.940Z,99.90
2022-10-09T08:04:09.905Z,99.90
2022-10-09T08:06:38.308Z,99.90
2022-10-09T08:09:07.648Z,99.90
2022-10-09T08:11:35.859Z,99.90
2022-10-09T08:14:03.692Z,99.90
2022-10-09T08:16:32.396Z,99.90
2022-10-09T08:19:02.033Z,99.90
2022-10-09T08:21:30.729Z,99.90
2022-10-09T08:23:59.918Z,99.90
2022-10-09T08:26:31.219Z,99.90
2022-10-09T08:29:02.047Z,99.90
2022-10-09T08:31:31.993Z,99.90
2022-10-09T08:34:03.426Z,99.90
2022-10-09T08:36:32.293Z,99.90
2022-10-09T08:39:00.516Z,99.90
2022-10-09T08:41:43.281Z,99.90
2022-10-09T08:44:41.047Z,99.90
2022-10-09T08:47:23.752Z,99.90
2022-10-09T08:50:10.291Z,99.90
2022-10-09T08:53:02.367Z,99.90
2022-10-09T08:55:59.099Z,99.90
2022-10-09T08:58:32.406Z,99.90
2022-10-09T09:01:27.601Z,99.90
2022-10-09T09:04:22.366Z,99.90
2022-10-09T09:07:39.104Z,99.90
2022-10-09T09:10:35.736Z,99.90
2022-10-09T09:13:38.068Z,99.90
2022-10-09T09:16:42.836Z,99.60
2022-10-09T09:19:55.531Z,98.70
2022-10-09T09:22:27.426Z,98.80
2022-10-09T09:24:58.075Z,96.10
2022-10-09T09:27:45.048Z,94.50
2022-10-09T09:30:12.695Z,92.90
2022-10-09T09:32:50.979Z,93.10
2022-10-09T09:35:43.117Z,93.20
2022-10-09T09:38:10.871Z,92.20
2022-10-09T09:40:40.514Z,91.00
2022-10-09T09:43:23.298Z,90.50
2022-10-09T09:45:59.502Z,89.50
2022-10-09T09:48:37.828Z,89.40
2022-10-09T09:51:28.126Z,87.60
2022-10-09T09:54:06.198Z,86.50
2022-10-09T09:57:10.400Z,86.50
2022-10-09T09:59:37.881Z,84.80
2022-10-09T10:02:22.602Z,84.70
2022-10-09T10:05:14.392Z,83.20
2022-10-09T10:07:42.213Z,83.80
2022-10-09T10:10:09.964Z,82.70
2022-10-09T10:12:55.979Z,81.60
2022-10-09T10:15:32.676Z,80.60
2022-10-09T10:18:07.817Z,80.10
2022-10-09T10:20:48.647Z,80.20
2022-10-09T10:23:39.938Z,78.10
2022-10-09T10:26:32.447Z,77.70
2022-10-09T10:29:05.850Z,79.00
2022-10-09T10:32:04.743Z,78.10
2022-10-09T10:34:56.805Z,76.30
2022-10-09T10:37:31.483Z,75.20
2022-10-09T10:40:15.132Z,75.60
2022-10-09T10:43:10.434Z,74.00
2022-10-09T10:45:44.149Z,75.60
2022-10-09T10:48:20.980Z,74.80
2022-10-09T10:51:07.012Z,71.80
2022-10-09T10:54:05.642Z,71.90
2022-10-09T10:56:40.475Z,70.60
2022-10-09T10:59:14.304Z,71.70
2022-10-09T11:01:52.874Z,72.10
2022-10-09T11:05:15.878Z,68.70
2022-10-09T11:08:11.295Z,71.50
2022-10-09T11:10:56.500Z,68.50
2022-10-09T11:13:35.010Z,67.40
2022-10-09T11:16:11.748Z,66.70
2022-10-09T11:19:17.742Z,68.10
2022-10-09T11:22:09.786Z,64.40
2022-10-09T11:25:05.695Z,66.00
2022-10-09T11:28:10.295Z,66.20
2022-10-09T11:31:13.794Z,63.80
2022-10-09T11:33:51.818Z,63.30
2022-10-09T11:36:34.162Z,65.20
2022-10-09T11:39:05.628Z,63.80
2022-10-09T11:41:36.839Z,65.40
2022-10-09T11:44:38.182Z,64.60
2022-10-09T11:47:42.041Z,62.40
2022-10-09T11:50:41.758Z,61.40
2022-10-09T11:53:14.961Z,62.90
2022-10-09T11:55:43.405Z,62.60
2022-10-09T11:58:32.130Z,63.90
2022-10-09T12:01:22.440Z,59.60
2022-10-09T12:04:20.892Z,60.30
2022-10-09T12:07:02.036Z,60.40
2022-10-09T12:09:43.538Z,62.30
2022-10-09T12:12:17.294Z,59.70
2022-10-09T12:14:49.246Z,59.70
2022-10-09T12:17:23.064Z,60.00
2022-10-09T12:20:01.766Z,58.50
2022-10-09T12:22:37.458Z,58.30
2022-10-09T12:25:24.648Z,57.60
2022-10-09T12:27:57.836Z,57.10
2022-10-09T12:30:36.304Z,56.60
2022-10-09T12:33:23.795Z,55.70
2022-10-09T12:36:15.704Z,54.20
2022-10-09T12:38:43.926Z,54.00
2022-10-09T12:41:25.270Z,56.20
2022-10-09T12:43:55.787Z,53.70
2022-10-09T12:46:39.279Z,54.40
2022-10-09T12:49:24.389Z,53.70
2022-10-09T12:51:56.580Z,51.90
2022-10-09T12:54:27.566Z,52.40
2022-10-09T12:56:58.453Z,53.60
2022-10-09T12:59:28.619Z,53.50
2022-10-09T13:02:00.295Z,53.10
2022-10-09T13:04:32.880Z,53.50
2022-10-09T13:07:07.822Z,53.20
2022-10-09T13:09:40.634Z,52.60
2022-10-09T13:12:27.625Z,52.40
2022-10-09T13:15:03.800Z,52.80
2022-10-09T13:17:41.532Z,52.60
2022-10-09T13:20:12.261Z,52.50
2022-10-09T13:22:40.406Z,52.10
2022-10-09T13:25:09.960Z,52.00
2022-10-09T13:27:40.137Z,52.70
2022-10-09T13:30:11.333Z,52.50
2022-10-09T13:32:39.156Z,53.30
2022-10-09T13:35:07.212Z,52.80
2022-10-09T13:37:34.971Z,49.90
2022-10-09T13:40:02.938Z,49.80
2022-10-09T13:42:37.120Z,49.70
2022-10-09T13:45:06.426Z,48.40
2022-10-09T13:47:34.185Z,48.80
2022-10-09T13:50:02.019Z,49.40
2022-10-09T13:52:29.827Z,49.90
2022-10-09T13:54:57.630Z,49.50
2022-10-09T13:57:25.422Z,48.60
2022-10-09T13:59:53.186Z,48.30
2022-10-09T14:02:21.038Z,47.70
2022-10-09T14:04:49.037Z,48.60
2022-10-09T14:07:16.799Z,48.80
2022-10-09T14:09:44.611Z,49.50
2022-10-09T14:12:12.374Z,49.90
2022-10-09T14:14:40.184Z,49.60
2022-10-09T14:17:07.982Z,49.70
2022-10-09T14:19:35.945Z,49.70
2022-10-09T14:22:03.711Z,49.60
2022-10-09T14:24:31.488Z,49.50
2022-10-09T14:26:59.212Z,48.90
2022-10-09T14:29:26.987Z,49.60
2022-10-09T14:31:54.747Z,49.10
2022-10-09T14:34:22.548Z,48.40
2022-10-09T14:36:50.644Z,48.60
2022-10-09T14:39:18.464Z,48.50
2022-10-09T14:41:46.243Z,47.90
2022-10-09T14:44:14.145Z,48.00
2022-10-09T14:46:41.928Z,48.10
2022-10-09T14:49:13.925Z,47.70
2022-10-09T14:51:41.932Z,47.80
2022-10-09T14:54:11.633Z,48.00
2022-10-09T14:56:39.821Z,47.90
2022-10-09T14:59:07.617Z,47.80
2022-10-09T15:01:35.787Z,48.00
2022-10-09T15:04:05.639Z,47.80
2022-10-09T15:06:34.285Z,47.50
2022-10-09T15:09:05.701Z,47.00
2022-10-09T15:11:35.844Z,47.50
2022-10-09T15:14:05.178Z,47.10
2022-10-09T15:16:33.658Z,46.70
2022-10-09T15:19:02.019Z,47.00
2022-10-09T15:21:33.128Z,47.50
2022-10-09T15:24:03.497Z,47.20
2022-10-09T15:26:33.724Z,47.40
2022-10-09T15:29:06.676Z,47.50
2022-10-09T15:31:38.428Z,47.80
2022-10-09T15:34:08.360Z,48.50
2022-10-09T15:36:39.910Z,49.10
2022-10-09T15:39:09.084Z,49.30
2022-10-09T15:41:39.771Z,49.80
2022-10-09T15:44:18.384Z,49.70
2022-10-09T15:46:48.344Z,49.50
2022-10-09T15:49:16.804Z,49.50
2022-10-09T15:51:44.797Z,50.30
2022-10-09T15:54:14.449Z,50.50
2022-10-09T15:56:42.434Z,50.90
2022-10-09T15:59:13.214Z,51.60
2022-10-09T16:01:41.064Z,51.80
2022-10-09T16:04:10.617Z,52.00
2022-10-09T16:06:38.701Z,52.40
2022-10-09T16:09:06.500Z,52.80
2022-10-09T16:11:35.004Z,53.20
2022-10-09T16:14:04.336Z,53.40
2022-10-09T16:16:32.302Z,53.50
2022-10-09T16:19:03.843Z,53.80
2022-10-09T16:21:31.759Z,54.40
2022-10-09T16:24:00.555Z,54.80
2022-10-09T16:26:29.673Z,55.30
2022-10-09T16:28:59.422Z,55.60
2022-10-09T16:31:35.145Z,55.60
2022-10-09T16:34:05.737Z,55.80
2022-10-09T16:36:34.135Z,56.00
2022-10-09T16:39:02.005Z,56.30
2022-10-09T16:41:29.815Z,56.70
2022-10-09T16:43:57.988Z,57.20
2022-10-09T16:49:07.273Z,59.10
2022-10-09T16:51:36.461Z,58.60
2022-10-09T16:54:06.019Z,59.20
2022-10-09T16:56:37.507Z,59.20
2022-10-09T16:59:10.565Z,59.50
2022-10-09T17:01:43.593Z,60.00
2022-10-09T17:04:13.161Z,60.50
2022-10-09T17:06:44.037Z,60.90
2022-10-09T17:09:14.234Z,61.70
2022-10-09T17:11:43.711Z,62.20
2022-10-09T17:14:12.813Z,62.00
2022-10-09T17:16:42.631Z,62.30
2022-10-09T17:19:10.926Z,63.00
2022-10-09T17:21:38.779Z,62.90
2022-10-09T17:24:07.731Z,63.60
2022-10-09T17:26:36.225Z,63.60
2022-10-09T17:29:04.833Z,64.10
2022-10-09T17:31:33.184Z,64.20
2022-10-09T17:34:04.442Z,64.30
2022-10-09T17:36:39.089Z,65.00
2022-10-09T17:39:15.341Z,65.60
2022-10-09T17:41:49.365Z,65.60
2022-10-09T17:44:17.270Z,66.00
2022-10-09T17:46:44.990Z,65.90
2022-10-09T17:49:12.791Z,65.60
2022-10-09T17:51:41.088Z,65.90
2022-10-09T17:54:19.389Z,66.20
2022-10-09T17:56:47.343Z,67.20
2022-10-09T17:59:15.835Z,66.70
2022-10-09T18:01:44.088Z,66.80
2022-10-09T18:04:16.949Z,67.20
2022-10-09T18:06:45.589Z,68.10
2022-10-09T18:09:13.388Z,67.90
2022-10-09T18:11:41.233Z,67.90
2022-10-09T18:14:09.836Z,67.90
2022-10-09T18:16:38.535Z,67.80
2022-10-09T18:19:12.985Z,67.80
2022-10-09T18:21:44.570Z,68.00
2022-10-09T18:24:13.539Z,68.70
2022-10-09T18:26:41.991Z,69.10
2022-10-09T18:29:10.006Z,69.50
2022-10-09T18:31:38.589Z,69.40
2022-10-09T18:34:06.545Z,69.70
2022-10-09T18:36:34.950Z,69.80
2022-10-09T18:39:08.808Z,70.00
2022-10-09T18:41:37.115Z,70.10
2022-10-09T18:44:06.051Z,71.40
2022-10-09T18:46:42.895Z,69.80
2022-10-09T18:49:14.129Z,70.80
2022-10-09T18:51:44.306Z,70.80
2022-10-09T18:54:17.975Z,70.70
2022-10-09T18:56:47.043Z,70.90
2022-10-09T18:59:20.028Z,71.20
2022-10-09T19:01:48.022Z,71.20
2022-10-09T19:04:15.925Z,71.10
2022-10-09T19:06:43.665Z,71.00
2022-10-09T19:09:11.586Z,71.20
2022-10-09T19:11:39.411Z,71.50
2022-10-09T19:14:07.316Z,71.70
2022-10-09T19:16:35.820Z,72.20
2022-10-09T19:19:04.330Z,72.50
2022-10-09T19:21:32.309Z,73.10
2022-10-09T19:24:03.572Z,72.90
2022-10-09T19:26:32.820Z,72.80
2022-10-09T19:29:00.721Z,73.00
2022-10-09T19:31:28.517Z,73.00
2022-10-09T19:33:56.372Z,73.00
2022-10-09T19:36:24.146Z,72.90
2022-10-09T19:38:51.907Z,73.00
2022-10-09T19:41:19.678Z,72.70
2022-10-09T19:43:47.693Z,73.00
2022-10-09T19:46:19.975Z,73.00
2022-10-09T19:48:47.803Z,73.40
2022-10-09T19:51:23.490Z,73.50
2022-10-09T19:53:52.229Z,73.50
2022-10-09T19:56:24.442Z,73.40
2022-10-09T19:58:53.094Z,73.40
2022-10-09T20:01:25.285Z,73.80
2022-10-09T20:03:58.971Z,74.70
2022-10-09T20:06:27.904Z,74.20
2022-10-09T20:08:56.679Z,74.10
2022-10-09T20:11:26.670Z,74.20
2022-10-09T20:13:56.208Z,74.50
2022-10-09T20:16:25.362Z,74.40
2022-10-09T20:18:55.571Z,74.50
2022-10-09T20:21:23.345Z,74.60
2022-10-09T20:23:52.325Z,74.70
2022-10-09T20:26:21.573Z,75.20
2022-10-09T20:28:50.742Z,75.30
2022-10-09T20:31:22.594Z,75.30
2022-10-09T20:33:51.703Z,75.40
2022-10-09T20:36:30.061Z,75.10
2022-10-09T20:39:00.439Z,75.50
2022-10-09T20:41:30.670Z,75.60
2022-10-09T20:44:00.748Z,75.30
2022-10-09T20:46:32.238Z,75.30
2022-10-09T20:49:03.521Z,75.50
2022-10-09T20:51:31.568Z,75.60
2022-10-09T20:54:00.995Z,75.60
2022-10-09T20:56:31.275Z,75.60
2022-10-09T20:58:59.833Z,75.80
2022-10-09T21:01:28.770Z,76.20
2022-10-09T21:03:59.051Z,76.20
2022-10-09T21:06:27.351Z,76.20
2022-10-09T21:08:55.893Z,76.30
2022-10-09T21:11:25.043Z,76.30
2022-10-09T21:13:53.329Z,76.20
2022-10-09T21:16:24.642Z,76.20
2022-10-09T21:19:01.544Z,76.10
2022-10-09T21:21:30.709Z,76.00
2022-10-09T21:24:00.238Z,75.80
2022-10-09T21:26:30.518Z,76.10
2022-10-09T21:28:59.869Z,76.00
2022-10-09T21:31:31.032Z,75.90
2022-10-09T21:34:00.794Z,76.20
2022-10-09T21:36:56.242Z,76.40
2022-10-09T21:39:30.939Z,76.70
2022-10-09T21:41:59.317Z,76.50
2022-10-09T21:44:27.705Z,76.80
2022-10-09T21:46:55.857Z,76.80
2022-10-09T21:49:27.674Z,76.80
2022-10-09T21:51:56.295Z,77.10
2022-10-09T21:54:24.237Z,77.00
2022-10-09T21:56:52.052Z,77.20
2022-10-09T21:59:19.917Z,77.30
2022-10-09T22:01:47.690Z,77.30
2022-10-09T22:04:15.550Z,77.30
2022-10-09T22:06:43.484Z,77.30
2022-10-09T22:09:11.969Z,77.30
2022-10-09T22:11:39.830Z,77.20
2022-10-09T22:14:08.150Z,77.40
2022-10-09T22:16:36.027Z,77.50
2022-10-09T22:19:03.886Z,77.40
2022-10-09T22:21:31.647Z,77.60
2022-10-09T22:24:02.698Z,77.60
2022-10-09T22:26:30.458Z,77.70
2022-10-09T22:28:58.267Z,78.00
2022-10-09T22:31:27.233Z,78.30
2022-10-09T22:34:01.420Z,78.40
2022-10-09T22:36:32.466Z,78.60
2022-10-09T22:39:03.905Z,78.70
2022-10-09T22:41:32.983Z,79.20
2022-10-09T22:44:02.184Z,79.40
2022-10-09T22:46:33.775Z,79.60
2022-10-09T22:49:01.901Z,80.00
2022-10-09T22:51:30.185Z,80.10
2022-10-09T22:53:59.598Z,80.30
2022-10-09T22:56:35.120Z,80.80
2022-10-09T22:59:03.653Z,81.30
2022-10-09T23:01:53.291Z,81.70
2022-10-09T23:04:22.784Z,82.30
2022-10-09T23:06:54.360Z,82.50
2022-10-09T23:09:27.384Z,82.60
2022-10-09T23:11:56.353Z,83.10
2022-10-09T23:14:25.317Z,83.60
2022-10-09T23:16:53.273Z,84.10
2022-10-09T23:19:21.048Z,84.50
2022-10-09T23:21:48.814Z,85.70
2022-10-09T23:24:17.933Z,84.90
2022-10-09T23:26:50.061Z,84.80
2022-10-09T23:29:19.394Z,84.90
2022-10-09T23:31:48.611Z,84.70
2022-10-09T23:34:16.481Z,84.60
2022-10-09T23:36:44.293Z,84.60
2022-10-09T23:39:12.868Z,84.40
2022-10-09T23:41:40.690Z,84.50
2022-10-09T23:44:08.643Z,84.50
2022-10-09T23:46:37.752Z,84.50
2022-10-09T23:49:05.776Z,84.50
2022-10-09T23:51:33.716Z,85.20
2022-10-09T23:54:01.702Z,86.00
2022-10-09T23:56:33.389Z,86.60
2022-10-09T23:59:03.547Z,86.80
